EGEC

Details ICAO EGEC (CAL)
Name Campbeltown
Region United Kingdom
Timezone Europe/London (UTC+0.0)
Plans Departing 15
Arriving 11
Stats Elevation 44 ft / 13 m (AMSL)
Location 55.437314° -5.686252°
Runways 1
Magnetic Variation 3.173° W
Sunrise 2017-12-12 08:42:50 UTC / 2017-12-12 08:42:50 Local
Sunset 2017-12-12 15:53:00 UTC / 2017-12-12 15:53:00 Local
Advertisement - Login to hide

Runways

ID Width Length Bearing (true) Bearing (mag) Surface Threshold Offset Overrun Length
11 151 ft / 46 m 9,976 ft / 3,041 m 106.08° 109.25° Asphalt 535 ft / 163 m 0 ft / 0 m
29 151 ft / 46 m 9,976 ft / 3,041 m 286.12° 289.29° Asphalt 1,332 ft / 406 m 0 ft / 0 m

Map

Weather


0- 5 10 15 20 25 30 35+ Temperature / ° C

Clouds and Precipitation
Forecast for 2017-12-12 12:00 UTC. Updated an hour ago

Ground ~20,000 ft ~40,000 ft Winds

METAR

EGEC 121220Z 19010KT 9999 FEW025 05/03 Q1000

TAF

Not found

Frequencies

Tower 125.90 MHz AFIS
Warning: Do not use this data for real-world aviation or navigation. No guarantee of current accuracy is given.